Time;durP1;ratioP1;P1;durP2;ratioP2;P2;SDS_P1;SDS_P2;PMS_P1;PMS_P2;Temp;Humidity;BMP_temperature;BMP_pressure;BME280_temperature;BME280_humidity;BME280_pressure;Samples;Min_cycle;Max_cycle;Signal;HPM_P1;HPM_P2
2022/12/30 00:01:16;;;;;;;12.95;3.50;;;;;;;8.04;99.50;100871.03;5094396;28;20040;-49
2022/12/30 00:03:44;;;;;;;11.15;3.38;;;;;;;8.04;99.12;100865.63;5094111;28;20487;-50
2022/12/30 00:06:15;;;;;;;11.80;3.38;;;;;;;8.05;98.67;100866.44;5093564;28;20032;-51
2022/12/30 00:08:48;;;;;;;11.93;3.47;;;;;;;8.03;99.30;100868.56;5094616;28;20048;-50
2022/12/30 00:11:31;;;;;;;12.57;3.88;;;;;;;7.96;97.78;100874.19;5092866;28;20380;-53
2022/12/30 00:34:16;;;;;;;11.63;3.55;;;;;;;7.88;97.06;100885.44;5093223;28;20105;-51
2022/12/30 00:36:44;;;;;;;10.63;3.50;;;;;;;7.93;98.24;100880.09;5092723;28;20048;-52
2022/12/30 00:39:11;;;;;;;8.10;3.25;;;;;;;7.98;98.90;100887.50;5094814;28;20040;-48
2022/12/30 00:44:25;;;;;;;12.15;3.90;;;;;;;7.92;98.88;100883.91;5092312;28;20040;-48
2022/12/30 00:46:53;;;;;;;12.50;4.15;;;;;;;7.88;98.63;100878.13;5092729;28;20510;-50
2022/12/30 00:57:39;;;;;;;10.90;3.13;;;;;;;7.92;100.00;100883.91;5089949;28;20074;-50
2022/12/30 01:00:08;;;;;;;9.05;3.15;;;;;;;7.94;100.00;100903.47;5093266;28;20052;-49
2022/12/30 01:02:36;;;;;;;11.48;3.42;;;;;;;8.00;100.00;100899.75;5093534;28;20049;-47
2022/12/30 01:05:05;;;;;;;9.63;3.25;;;;;;;8.08;100.00;100901.19;5078999;28;20090;-52
2022/12/30 01:07:33;;;;;;;8.50;2.97;;;;;;;8.00;100.00;100901.63;5107952;28;20050;-50
2022/12/30 01:10:00;;;;;;;11.50;3.22;;;;;;;7.94;100.00;100903.47;5092470;28;20036;-54
2022/12/30 01:12:29;;;;;;;14.88;4.28;;;;;;;7.82;100.00;100916.31;5075264;28;20498;-50
2022/12/30 01:14:58;;;;;;;10.88;3.53;;;;;;;7.82;100.00;100910.88;5064418;28;20036;-51
2022/12/30 01:17:29;;;;;;;13.80;3.75;;;;;;;7.83;100.00;100918.75;5090465;28;20094;-51
2022/12/30 01:19:57;;;;;;;11.38;3.20;;;;;;;7.86;100.00;100920.13;5092306;28;20048;-53
2022/12/30 01:22:25;;;;;;;15.40;4.05;;;;;;;7.90;100.00;100924.00;5091927;28;20410;-50
2022/12/30 01:24:52;;;;;;;15.18;4.07;;;;;;;7.90;100.00;100924.00;5093253;28;20036;-51
2022/12/30 01:27:20;;;;;;;12.45;3.63;;;;;;;7.97;100.00;100913.81;5091984;28;20418;-53
2022/12/30 01:29:47;;;;;;;10.73;3.55;;;;;;;7.87;100.00;100922.63;5070805;28;20028;-53
2022/12/30 01:32:18;;;;;;;13.60;3.83;;;;;;;7.86;100.00;100934.56;5091295;28;20044;-50
2022/12/30 01:34:47;;;;;;;10.57;3.40;;;;;;;7.85;100.00;100922.03;5091312;28;20449;-52
2022/12/30 01:37:15;;;;;;;15.05;4.38;;;;;;;7.75;100.00;100919.16;5091717;28;20040;-51
2022/12/30 01:39:42;;;;;;;11.77;3.80;;;;;;;7.75;100.00;100924.59;5092082;28;20047;-52
2022/12/30 01:42:25;;;;;;;14.27;3.90;;;;;;;7.76;100.00;100939.78;5091416;28;20048;-50
2022/12/30 01:44:57;;;;;;;12.32;3.78;;;;;;;7.80;100.00;100942.84;5092584;28;20039;-50
2022/12/30 01:47:47;;;;;;;9.85;2.90;;;;;;;7.89;100.00;100941.38;5092415;28;20052;-49
2022/12/30 01:50:17;;;;;;;7.55;2.80;;;;;;;7.87;100.00;100947.03;5100220;28;20040;-48
2022/12/30 01:52:53;;;;;;;13.07;3.55;;;;;;;7.83;100.00;100950.47;5091606;28;20044;-49
2022/12/30 01:55:29;;;;;;;13.90;3.95;;;;;;;7.76;100.00;100961.47;5093106;28;20504;-50
2022/12/30 01:57:57;;;;;;;11.85;3.60;;;;;;;7.68;100.00;100962.72;5081043;28;20040;-51
2022/12/30 02:00:25;;;;;;;12.25;3.72;;;;;;;7.65;100.00;100971.34;5106182;28;20048;-50
2022/12/30 02:02:54;;;;;;;13.02;3.42;;;;;;;7.67;100.00;100962.94;5090635;28;20036;-51
2022/12/30 02:05:25;;;;;;;13.93;3.75;;;;;;;7.64;100.00;100974.31;5090396;28;20064;-51
2022/12/30 02:08:03;;;;;;;16.45;3.60;;;;;;;7.63;100.00;100975.38;5081497;28;20454;-50
2022/12/30 02:10:32;;;;;;;11.48;3.65;;;;;;;7.62;100.00;100969.09;5093440;28;20044;-47
2022/12/30 02:13:00;;;;;;;9.95;3.60;;;;;;;7.63;100.00;100972.66;5091656;28;20042;-52
2022/12/30 02:15:32;;;;;;;16.80;4.03;;;;;;;7.62;100.00;100960.16;5092557;28;20355;-51
2022/12/30 02:18:09;;;;;;;10.75;3.40;;;;;;;7.65;100.00;100960.50;5074509;28;20161;-49
2022/12/30 02:20:55;;;;;;;11.27;3.50;;;;;;;7.64;100.00;100956.13;5071500;28;20570;-48
2022/12/30 02:23:38;;;;;;;12.70;3.70;;;;;;;7.67;100.00;100944.81;5090285;28;20041;-50
2022/12/30 02:26:14;;;;;;;11.20;3.67;;;;;;;7.69;100.00;100948.09;5091252;28;20052;-48
2022/12/30 02:28:49;;;;;;;;;;;;;;;7.72;100.00;100948.66;5092703;28;20032;-48
2022/12/30 02:31:32;;;;;;;6.32;2.33;;;;;;;7.72;100.00;100932.38;5108259;28;19920;-52
2022/12/30 02:34:12;;;;;;;11.50;3.42;;;;;;;7.68;100.00;100935.59;5092622;28;20068;-49
2022/12/30 02:36:58;;;;;;;12.77;3.70;;;;;;;7.71;100.00;100925.34;5077671;28;20059;-49
2022/12/30 02:39:33;;;;;;;;;;;;;;;7.71;100.00;100925.34;5091315;28;20044;-50
2022/12/30 02:45:15;;;;;;;14.55;3.58;;;;;;;7.66;100.00;100918.75;5092141;28;20043;-51
2022/12/30 02:47:49;;;;;;;13.98;3.85;;;;;;;7.61;100.00;100931.41;5082002;28;20497;-50
2022/12/30 02:53:16;;;;;;;12.38;3.65;;;;;;;7.60;100.00;100908.91;5090973;28;20178;-51
2022/12/30 02:55:44;;;;;;;11.48;3.88;;;;;;;7.57;100.00;100919.41;5107656;28;20044;-50
2022/12/30 02:58:12;;;;;;;14.00;4.20;;;;;;;7.50;100.00;100913.31;5092394;28;20085;-50
2022/12/30 03:03:59;;;;;;;11.65;3.92;;;;;;;7.45;100.00;100903.22;5095179;28;20496;-50
2022/12/30 03:06:53;;;;;;;14.48;3.90;;;;;;;7.56;100.00;100896.09;5095916;28;20448;-51
2022/12/30 03:12:57;;;;;;;10.77;3.67;;;;;;;7.28;100.00;100899.66;5089899;28;20066;-48
2022/12/30 03:15:31;;;;;;;11.32;3.35;;;;;;;7.32;100.00;100890.81;5085111;28;20049;-51
2022/12/30 03:17:59;;;;;;;12.15;2.67;;;;;;;7.38;100.00;100894.41;5090416;28;20093;-49
2022/12/30 03:20:27;;;;;;;11.48;3.60;;;;;;;7.45;100.00;100893.19;5093885;28;20494;-52
2022/12/30 03:28:30;;;;;;;9.73;3.15;;;;;;;7.44;100.00;100893.44;5094256;28;20044;-49
2022/12/30 03:31:03;;;;;;;15.38;3.83;;;;;;;7.40;100.00;100895.00;5093960;28;20052;-49
2022/12/30 03:33:32;;;;;;;12.70;3.38;;;;;;;7.29;100.00;100887.75;5094357;28;20036;-47
2022/12/30 03:36:23;;;;;;;9.82;3.50;;;;;;;7.27;100.00;100895.31;5095112;28;20383;-49
2022/12/30 03:39:05;;;;;;;13.15;3.38;;;;;;;7.26;100.00;100891.75;5086120;28;20048;-49
2022/12/30 03:41:33;;;;;;;11.27;3.58;;;;;;;7.26;100.00;100891.75;5096202;28;20055;-49
2022/12/30 03:44:01;;;;;;;12.23;3.60;;;;;;;7.28;100.00;100896.94;5094200;28;20039;-49
2022/12/30 03:46:31;;;;;;;10.18;3.22;;;;;;;7.33;100.00;100891.63;5093417;28;20040;-51
2022/12/30 03:48:59;;;;;;;10.15;3.28;;;;;;;7.30;100.00;100909.19;5095075;28;20040;-50
2022/12/30 03:51:27;;;;;;;11.30;3.75;;;;;;;7.31;100.00;100907.28;5093515;28;20051;-51
2022/12/30 03:53:54;;;;;;;11.80;3.90;;;;;;;7.28;100.00;100905.06;5094653;28;20033;-49
2022/12/30 03:56:22;;;;;;;10.48;3.47;;;;;;;7.22;100.00;100902.28;5095126;28;20079;-47
2022/12/30 03:58:50;;;;;;;12.45;3.88;;;;;;;7.15;100.00;100900.78;5094716;28;20094;-47
2022/12/30 04:01:17;;;;;;;14.65;4.20;;;;;;;7.09;100.00;100901.75;5094063;28;20040;-48
2022/12/30 04:03:45;;;;;;;13.32;4.07;;;;;;;7.03;100.00;100896.25;5094239;28;20040;-47
2022/12/30 04:06:13;;;;;;;10.45;3.58;;;;;;;7.04;100.00;100894.34;5094398;28;20506;-51
2022/12/30 04:08:41;;;;;;;11.43;3.80;;;;;;;7.07;100.00;100901.16;5094808;28;20048;-51
2022/12/30 04:11:08;;;;;;;11.40;3.60;;;;;;;7.02;100.00;100901.91;5076189;28;20044;-52
2022/12/30 04:13:36;;;;;;;12.68;3.25;;;;;;;7.03;100.00;100908.97;5094624;28;20043;-53
2022/12/30 04:16:04;;;;;;;14.23;4.35;;;;;;;7.03;100.00;100904.38;5093905;28;20037;-50
2022/12/30 04:18:31;;;;;;;11.23;3.58;;;;;;;7.03;100.00;100903.56;5094167;28;20044;-49
2022/12/30 04:20:59;;;;;;;12.73;3.65;;;;;;;7.01;100.00;100911.09;5094523;28;20040;-49
2022/12/30 04:23:27;;;;;;;16.20;4.00;;;;;;;6.95;100.00;100915.59;5093924;28;20513;-50
2022/12/30 04:25:54;;;;;;;8.48;3.08;;;;;;;6.97;100.00;100918.88;5093184;28;20507;-50
2022/12/30 04:28:22;;;;;;;10.50;3.17;;;;;;;7.01;100.00;100917.34;5092789;28;20051;-51
2022/12/30 04:30:50;;;;;;;13.10;3.60;;;;;;;7.04;100.00;100918.72;5093809;28;20494;-50
2022/12/30 04:33:17;;;;;;;8.60;2.80;;;;;;;7.17;100.00;100921.16;5093916;28;20063;-48
2022/12/30 04:35:45;;;;;;;8.75;3.03;;;;;;;7.21;100.00;100914.16;5089192;28;20043;-51
2022/12/30 04:38:12;;;;;;;9.80;3.05;;;;;;;7.19;100.00;100910.06;5093497;28;20521;-49
2022/12/30 04:40:40;;;;;;;9.00;3.20;;;;;;;7.15;100.00;100906.22;5093589;28;20063;-52
2022/12/30 04:43:08;;;;;;;12.75;3.45;;;;;;;7.23;100.00;100905.81;5092776;28;20039;-48
2022/12/30 04:45:36;;;;;;;5.15;2.42;;;;;;;7.25;100.00;100904.50;5093827;28;20040;-50
2022/12/30 04:48:04;;;;;;;8.80;2.83;;;;;;;7.18;100.00;100905.72;5092415;28;20044;-49
2022/12/30 04:50:32;;;;;;;8.80;2.95;;;;;;;7.22;100.00;100899.56;5093924;28;20281;-50
2022/12/30 04:52:59;;;;;;;8.48;2.78;;;;;;;7.36;100.00;100896.53;5091950;28;20059;-49
2022/12/30 04:55:27;;;;;;;5.47;2.40;;;;;;;7.64;100.00;100890.22;5093961;28;20040;-50
2022/12/30 04:57:55;;;;;;;13.10;3.83;;;;;;;7.44;100.00;100894.25;5093624;28;20051;-48
2022/12/30 05:00:22;;;;;;;6.78;2.60;;;;;;;7.51;100.00;100894.09;5093035;28;20376;-51
2022/12/30 05:02:50;;;;;;;8.98;2.97;;;;;;;7.45;100.00;100892.34;5093691;28;20044;-48
2022/12/30 05:05:18;;;;;;;10.00;3.05;;;;;;;7.34;100.00;100893.28;5078493;28;20070;-50
2022/12/30 05:07:45;;;;;;;10.00;3.08;;;;;;;7.38;100.00;100900.66;5093327;28;20040;-49
2022/12/30 05:10:13;;;;;;;9.57;2.85;;;;;;;7.39;100.00;100891.47;5085878;28;20082;-49
2022/12/30 05:12:41;;;;;;;12.20;3.58;;;;;;;7.32;100.00;100893.50;5088308;28;20067;-48
2022/12/30 05:15:09;;;;;;;13.82;3.58;;;;;;;7.35;100.00;100901.13;5093074;28;20048;-51
2022/12/30 05:17:37;;;;;;;8.98;2.80;;;;;;;7.60;100.00;100892.63;5092110;28;20102;-49
2022/12/30 05:20:05;;;;;;;9.38;3.25;;;;;;;7.48;100.00;100900.03;5092726;28;20405;-50
2022/12/30 05:22:33;;;;;;;11.80;3.63;;;;;;;7.35;100.00;100897.63;5087310;28;20049;-53
2022/12/30 05:27:46;;;;;;;13.65;4.00;;;;;;;7.23;100.00;100886.84;5093037;28;20498;-52
2022/12/30 05:30:14;;;;;;;13.38;3.88;;;;;;;7.08;100.00;100883.88;5091491;28;20036;-53
2022/12/30 05:32:42;;;;;;;11.68;3.03;;;;;;;6.96;100.00;100884.72;5092715;28;20044;-50
2022/12/30 05:35:09;;;;;;;12.85;4.10;;;;;;;6.77;100.00;100896.81;5092576;28;20042;-50
2022/12/30 05:37:37;;;;;;;17.35;4.35;;;;;;;6.65;100.00;100899.56;5091774;28;20069;-52
2022/12/30 05:40:05;;;;;;;16.67;4.18;;;;;;;6.57;100.00;100899.94;5092031;28;20498;-50
2022/12/30 05:42:33;;;;;;;17.75;4.90;;;;;;;6.54;100.00;100889.59;5074449;28;20048;-54
2022/12/30 05:45:01;;;;;;;15.35;4.75;;;;;;;6.50;100.00;100889.25;5078021;28;20036;-55
2022/12/30 05:47:28;;;;;;;11.93;3.70;;;;;;;6.69;100.00;100881.78;5091763;28;20039;-52
2022/12/30 05:49:56;;;;;;;9.45;3.00;;;;;;;7.07;100.00;100880.34;5091197;28;20048;-49
2022/12/30 05:52:24;;;;;;;10.90;3.75;;;;;;;7.06;100.00;100884.09;5092659;28;20490;-51
2022/12/30 05:54:51;;;;;;;12.40;3.70;;;;;;;7.05;100.00;100885.19;5092912;28;20075;-51
2022/12/30 05:57:19;;;;;;;16.55;3.85;;;;;;;7.19;100.00;100883.81;5092165;28;20132;-51
2022/12/30 05:59:46;;;;;;;12.15;3.40;;;;;;;7.02;100.00;100891.06;5092626;28;20044;-50
2022/12/30 06:02:14;;;;;;;6.47;2.15;;;;;;;7.09;100.00;100880.91;5092338;28;20071;-50
2022/12/30 06:04:43;;;;;;;13.85;3.88;;;;;;;7.04;100.00;100880.81;5075030;28;20043;-51
2022/12/30 06:07:11;;;;;;;15.23;4.57;;;;;;;6.97;100.00;100872.00;5092110;28;20482;-52
2022/12/30 06:09:38;;;;;;;13.15;3.75;;;;;;;6.91;100.00;100873.00;5088534;28;20487;-51
2022/12/30 06:12:06;;;;;;;12.73;4.03;;;;;;;7.00;100.00;100874.25;5082328;28;20551;-51
2022/12/30 06:14:34;;;;;;;12.23;3.67;;;;;;;6.89;100.00;100867.81;5092067;28;20054;-52
2022/12/30 06:17:01;;;;;;;10.13;3.00;;;;;;;6.92;100.00;100869.22;5092133;28;20440;-50
2022/12/30 06:19:29;;;;;;;13.07;4.15;;;;;;;6.94;100.00;100861.66;5090598;28;20040;-52
2022/12/30 06:21:57;;;;;;;17.75;4.65;;;;;;;6.75;100.00;100852.91;5092545;28;20470;-54
2022/12/30 06:24:24;;;;;;;11.40;4.25;;;;;;;6.68;100.00;100860.34;5092572;28;20040;-51
2022/12/30 06:26:52;;;;;;;15.10;4.00;;;;;;;6.66;100.00;100857.88;4385284;28;10000597;-45
2022/12/30 06:29:19;;;;;;;19.15;4.43;;;;;;;6.67;100.00;100856.84;5089110;28;20111;-49
2022/12/30 06:31:47;;;;;;;12.63;4.13;;;;;;;6.71;100.00;100859.88;5089112;28;20048;-48
2022/12/30 06:34:15;;;;;;;16.02;4.25;;;;;;;6.63;100.00;100850.25;5090255;28;20054;-49
2022/12/30 06:36:42;;;;;;;10.07;3.13;;;;;;;6.66;100.00;100855.16;5093204;28;20047;-50
2022/12/30 06:39:10;;;;;;;14.00;3.83;;;;;;;6.76;100.00;100857.28;5093091;28;20080;-48
2022/12/30 06:41:38;;;;;;;12.43;4.28;;;;;;;6.75;100.00;100848.31;5093136;28;20813;-50
2022/12/30 06:44:05;;;;;;;13.05;4.00;;;;;;;6.77;100.00;100845.38;5092836;28;20036;-50
2022/12/30 06:46:33;;;;;;;14.77;4.13;;;;;;;6.73;100.00;100845.03;5091897;28;20432;-51
2022/12/30 06:49:00;;;;;;;11.93;3.90;;;;;;;6.61;100.00;100849.66;5092462;28;20048;-53
2022/12/30 06:51:28;;;;;;;12.50;3.22;;;;;;;6.61;100.00;100841.53;5092292;28;20044;-53
2022/12/30 06:53:56;;;;;;;11.40;3.65;;;;;;;6.72;100.00;100831.75;5092349;28;20036;-52
2022/12/30 06:56:23;;;;;;;11.63;3.10;;;;;;;6.70;100.00;100823.84;5092503;28;20051;-52
2022/12/30 06:58:51;;;;;;;16.45;3.90;;;;;;;6.59;100.00;100822.00;5092002;28;20058;-52
2022/12/30 07:01:18;;;;;;;14.38;3.92;;;;;;;6.58;100.00;100818.47;5092420;28;20051;-52
2022/12/30 07:03:46;;;;;;;9.60;3.60;;;;;;;6.53;100.00;100809.44;5092478;28;20119;-51
2022/12/30 07:06:14;;;;;;;14.77;3.97;;;;;;;6.52;100.00;100799.69;5092355;28;20040;-53
2022/12/30 07:08:42;;;;;;;14.88;4.07;;;;;;;6.44;100.00;100800.88;5095316;28;20089;-55
2022/12/30 07:11:09;;;;;;;11.90;3.72;;;;;;;6.46;100.00;100792.53;5093839;28;20102;-56
2022/12/30 07:13:37;;;;;;;14.25;4.10;;;;;;;6.35;100.00;100784.22;5085563;28;20039;-52
2022/12/30 07:16:05;;;;;;;16.83;4.68;;;;;;;6.29;100.00;100774.34;5108747;28;20414;-55
2022/12/30 07:18:33;;;;;;;14.85;4.63;;;;;;;6.27;100.00;100775.66;5094771;28;20486;-52
2022/12/30 07:21:01;;;;;;;17.05;4.13;;;;;;;6.25;100.00;100780.47;5095487;28;20048;-53
2022/12/30 07:23:28;;;;;;;16.27;5.07;;;;;;;6.24;100.00;100782.38;5095038;28;20486;-52
2022/12/30 07:25:56;;;;;;;11.32;3.50;;;;;;;6.39;100.00;100779.94;5094240;28;20090;-53
2022/12/30 07:28:24;;;;;;;18.13;4.43;;;;;;;6.34;100.00;100782.56;5094952;28;20032;-53
2022/12/30 07:30:51;;;;;;;12.98;4.10;;;;;;;6.32;100.00;100783.88;5094976;28;20395;-52
2022/12/30 07:33:19;;;;;;;14.05;4.47;;;;;;;6.45;100.00;100780.06;5095185;28;20115;-52
2022/12/30 07:35:48;;;;;;;15.93;4.65;;;;;;;6.42;100.00;100777.81;5095091;28;20044;-52
2022/12/30 07:38:16;;;;;;;19.58;5.28;;;;;;;6.54;100.00;100775.91;5094719;28;20046;-50
2022/12/30 07:40:43;;;;;;;15.90;5.20;;;;;;;6.50;100.00;100777.47;5093603;28;20064;-54
2022/12/30 07:43:11;;;;;;;16.73;4.75;;;;;;;6.52;100.00;100762.63;5093449;28;20032;-53
2022/12/30 07:45:38;;;;;;;15.50;4.75;;;;;;;6.53;100.00;100760.72;5093841;28;20044;-52
2022/12/30 07:48:06;;;;;;;11.77;3.70;;;;;;;6.37;100.00;100744.22;5094415;28;20040;-51
2022/12/30 07:50:34;;;;;;;18.65;4.75;;;;;;;6.44;100.00;100749.47;5094270;28;20119;-50
2022/12/30 07:53:01;;;;;;;10.98;3.72;;;;;;;6.36;100.00;100731.72;5094241;28;20044;-51
2022/12/30 07:55:29;;;;;;;17.40;4.45;;;;;;;6.29;100.00;100731.06;5093080;28;20051;-52
2022/12/30 07:57:57;;;;;;;12.18;4.18;;;;;;;6.26;100.00;100726.13;5094224;28;20052;-51
2022/12/30 08:00:25;;;;;;;16.42;4.40;;;;;;;6.22;100.00;100718.75;5094465;28;20040;-50
2022/12/30 08:02:53;;;;;;;12.90;4.47;;;;;;;6.17;100.00;100714.06;5094367;28;20119;-51
2022/12/30 08:05:21;;;;;;;13.38;3.90;;;;;;;6.18;100.00;100715.69;5110024;28;20059;-51
2022/12/30 08:07:52;;;;;;;13.18;3.92;;;;;;;6.21;100.00;100709.00;5076690;28;20043;-49
2022/12/30 08:10:20;;;;;;;12.18;3.90;;;;;;;6.33;100.00;100709.75;5085267;28;20495;-50
2022/12/30 08:12:48;;;;;;;10.45;3.70;;;;;;;6.34;100.00;100690.56;5093626;28;20041;-55
2022/12/30 08:15:16;;;;;;;13.35;3.70;;;;;;;6.34;100.00;100698.69;5094071;28;20032;-49
2022/12/30 08:17:43;;;;;;;13.80;3.95;;;;;;;6.37;100.00;100692.81;5079242;28;20120;-50
2022/12/30 08:20:11;;;;;;;13.02;4.25;;;;;;;6.34;100.00;100685.16;5094815;28;20048;-50
2022/12/30 08:22:41;;;;;;;20.35;5.88;;;;;;;6.39;100.00;100690.66;5092990;28;20078;-50
2022/12/30 08:25:09;;;;;;;10.65;3.47;;;;;;;6.45;100.00;100685.34;5086093;28;20032;-49
2022/12/30 08:27:37;;;;;;;11.25;4.18;;;;;;;6.46;100.00;100684.28;5091629;28;20119;-52
2022/12/30 08:30:05;;;;;;;11.40;3.55;;;;;;;6.42;100.00;100680.41;5092354;28;20046;-51
2022/12/30 08:32:32;;;;;;;18.20;4.93;;;;;;;6.56;100.00;100684.44;5094000;28;20044;-52
2022/12/30 08:35:00;;;;;;;16.50;5.20;;;;;;;6.58;100.00;100676.91;5090578;28;20124;-50
2022/12/30 08:37:28;;;;;;;10.50;3.80;;;;;;;6.75;100.00;100668.78;5097062;28;20036;-53
2022/12/30 08:39:55;;;;;;;9.90;3.03;;;;;;;6.86;100.00;100665.19;5094159;28;20048;-49
2022/12/30 08:42:23;;;;;;;23.60;7.00;;;;;;;7.04;100.00;100664.09;5093322;28;20066;-53
2022/12/30 08:44:51;;;;;;;18.33;6.13;;;;;;;6.95;100.00;100658.28;5092791;28;20054;-52
2022/12/30 08:47:18;;;;;;;22.83;6.57;;;;;;;7.07;100.00;100652.78;5093586;28;20237;-53
2022/12/30 08:49:46;;;;;;;15.90;4.97;;;;;;;7.10;100.00;100649.56;5093810;28;20062;-50
2022/12/30 08:52:13;;;;;;;16.45;4.93;;;;;;;7.18;100.00;100632.84;5093365;28;20490;-53
2022/12/30 08:54:41;;;;;;;17.70;5.28;;;;;;;7.04;100.00;100626.97;5092271;28;20048;-52
2022/12/30 08:57:10;;;;;;;17.17;5.25;;;;;;;7.04;100.00;100626.16;5092826;28;20059;-54
2022/12/30 08:59:39;;;;;;;13.30;4.55;;;;;;;6.97;100.00;100620.91;5092310;28;20059;-53
2022/12/30 09:02:10;;;;;;;18.17;5.05;;;;;;;6.98;100.00;100627.97;5092999;28;20058;-49
2022/12/30 09:04:38;;;;;;;12.02;4.65;;;;;;;7.04;100.00;100618.84;5093837;28;20039;-50
2022/12/30 09:07:06;;;;;;;15.43;4.70;;;;;;;7.10;100.00;100617.03;5090842;28;20067;-50
2022/12/30 09:09:51;;;;;;;14.93;4.68;;;;;;;7.02;100.00;100621.00;5066126;28;20090;-51
2022/12/30 09:12:19;;;;;;;16.00;5.43;;;;;;;7.24;100.00;100607.47;5087976;28;20051;-51
2022/12/30 09:14:46;;;;;;;29.55;8.82;;;;;;;7.58;100.00;100604.66;5090058;28;20043;-51
2022/12/30 09:17:14;;;;;;;9.45;3.70;;;;;;;7.44;100.00;100606.09;5092434;28;20043;-51
2022/12/30 09:19:42;;;;;;;27.50;8.65;;;;;;;7.42;100.00;100606.34;5093454;28;20043;-51
2022/12/30 09:22:09;;;;;;;16.90;5.53;;;;;;;7.29;100.00;100595.91;5092843;28;20169;-49
2022/12/30 09:24:37;;;;;;;22.58;6.80;;;;;;;7.33;100.00;100596.19;5092129;28;20040;-50
2022/12/30 09:27:04;;;;;;;13.13;4.22;;;;;;;7.39;100.00;100587.06;5092635;28;20040;-50
2022/12/30 09:29:32;;;;;;;8.00;2.78;;;;;;;7.27;100.00;100584.47;5092439;28;20051;-49
2022/12/30 09:32:00;;;;;;;10.25;3.30;;;;;;;7.25;100.00;100583.91;5092313;28;20040;-51
2022/12/30 09:34:27;;;;;;;9.18;3.13;;;;;;;7.23;100.00;100580.63;5092924;28;20055;-49
2022/12/30 09:36:55;;;;;;;18.20;6.03;;;;;;;7.39;100.00;100581.66;5088501;28;20068;-51
2022/12/30 09:39:30;;;;;;;13.38;4.70;;;;;;;7.40;100.00;100577.84;5083605;28;20123;-49
2022/12/30 09:45:14;;;;;;;11.15;3.20;;;;;;;7.24;100.00;100569.53;5078140;28;20411;-49
2022/12/30 09:47:57;;;;;;;10.13;3.33;;;;;;;7.39;100.00;100570.81;5097943;28;20398;-47
2022/12/30 09:50:38;;;;;;;11.48;3.53;;;;;;;7.54;100.00;100568.25;5075316;28;20047;-48
2022/12/30 09:53:24;;;;;;;20.45;7.22;;;;;;;7.65;100.00;100570.03;5099556;28;20040;-50
2022/12/30 09:56:08;;;;;;;8.30;2.90;;;;;;;7.64;100.00;100562.94;5091446;28;20047;-49
2022/12/30 09:58:36;;;;;;;13.73;4.18;;;;;;;7.53;100.00;100555.78;5071909;28;20048;-49
2022/12/30 10:01:27;;;;;;;12.52;4.88;;;;;;;7.64;100.00;100535.00;5091864;28;20498;-54
2022/12/30 10:03:57;;;;;;;16.45;6.13;;;;;;;7.64;100.00;100530.41;5074109;28;20066;-49
2022/12/30 10:06:29;;;;;;;15.43;5.13;;;;;;;7.66;100.00;100522.03;5091441;28;20044;-50
2022/12/30 10:09:24;;;;;;;8.30;2.92;;;;;;;7.64;100.00;100511.41;5091685;28;20097;-51
2022/12/30 10:11:57;;;;;;;14.13;4.97;;;;;;;7.55;100.00;100504.84;5084841;28;20367;-52
2022/12/30 10:14:57;;;;;;;7.93;3.50;;;;;;;7.49;100.00;100492.31;5095766;28;20043;-49
2022/12/30 10:17:50;;;;;;;9.13;2.75;;;;;;;7.39;100.00;100495.72;5042688;28;20063;-49
2022/12/30 10:20:37;;;;;;;11.32;2.90;;;;;;;7.44;100.00;100486.84;5081277;28;20402;-52
2022/12/30 10:23:23;;;;;;;;;;;;;;;7.48;100.00;100496.09;5096929;28;20051;-50
2022/12/30 10:26:13;;;;;;;14.57;4.20;;;;;;;7.46;100.00;100485.50;5095321;28;19969;-49
2022/12/30 10:28:52;;;;;;;18.95;4.93;;;;;;;7.61;100.00;100482.13;5083195;28;20436;-51
2022/12/30 10:31:21;;;;;;;9.35;3.53;;;;;;;7.65;100.00;100477.81;5093232;28;20044;-51
2022/12/30 10:33:51;;;;;;;8.32;2.92;;;;;;;7.72;100.00;100460.50;5096492;28;20040;-55
2022/12/30 10:36:40;;;;;;;7.80;2.80;;;;;;;7.54;100.00;100465.25;5095324;28;20059;-51
2022/12/30 10:39:23;;;;;;;7.57;2.95;;;;;;;7.39;100.00;100441.53;5093808;28;20044;-52
2022/12/30 10:42:18;;;;;;;9.48;3.15;;;;;;;7.37;100.00;100438.25;5094310;28;20409;-54
2022/12/30 10:45:12;;;;;;;6.80;2.60;;;;;;;7.34;100.00;100422.50;5094614;28;20068;-51
2022/12/30 10:48:07;;;;;;;8.30;2.75;;;;;;;7.33;100.00;100414.63;5094874;28;20063;-51
2022/12/30 10:50:54;;;;;;;10.55;3.13;;;;;;;7.27;100.00;100399.41;5093690;28;20044;-51
2022/12/30 10:53:25;;;;;;;8.10;2.83;;;;;;;7.25;100.00;100392.31;5094507;28;20067;-50
2022/12/30 10:55:58;;;;;;;8.73;3.10;;;;;;;7.28;100.00;100369.31;5082252;28;20148;-50
2022/12/30 10:58:33;;;;;;;9.35;3.20;;;;;;;7.31;100.00;100365.28;5094707;28;20051;-50
2022/12/30 11:01:02;;;;;;;15.43;3.30;;;;;;;7.33;100.00;100360.41;5084527;28;20047;-50
2022/12/30 11:03:29;;;;;;;10.27;3.10;;;;;;;7.32;100.00;100354.19;5082552;28;20072;-49
2022/12/30 11:05:59;;;;;;;8.65;3.00;;;;;;;7.31;100.00;100347.16;5094754;28;20506;-48
2022/12/30 11:08:29;;;;;;;8.15;2.92;;;;;;;7.33;100.00;100336.84;5066142;28;20073;-50
2022/12/30 11:11:00;;;;;;;11.10;3.30;;;;;;;7.34;100.00;100319.53;5081046;28;20102;-49
2022/12/30 11:16:17;;;;;;;8.98;3.30;;;;;;;7.37;100.00;100312.75;5095586;28;20123;-50
2022/12/30 11:18:45;;;;;;;9.07;3.03;;;;;;;7.37;100.00;100296.50;5094783;28;20516;-51
2022/12/30 11:21:13;;;;;;;13.82;5.25;;;;;;;7.41;100.00;100300.34;5091775;28;20531;-52
2022/12/30 11:23:41;;;;;;;12.35;4.90;;;;;;;7.46;100.00;100284.91;5093139;28;20036;-50
2022/12/30 11:26:17;;;;;;;12.57;3.20;;;;;;;7.48;100.00;100281.97;5094013;28;20043;-51
2022/12/30 11:28:46;;;;;;;;;;;;;;;7.48;100.00;100273.81;5094504;28;20038;-50
2022/12/30 11:31:14;;;;;;;10.82;2.90;;;;;;;7.49;100.00;100272.72;5094124;28;19924;-48
2022/12/30 11:33:53;;;;;;;11.88;4.13;;;;;;;7.52;100.00;100266.78;5095324;28;20048;-51
2022/12/30 11:36:33;;;;;;;8.73;3.30;;;;;;;7.52;100.00;100255.13;5077355;28;20051;-48
2022/12/30 11:39:04;;;;;;;10.73;3.25;;;;;;;7.51;100.00;100243.47;5094098;28;20043;-49
2022/12/30 11:41:34;;;;;;;19.40;7.28;;;;;;;7.53;100.00;100237.78;5094017;28;20455;-53
2022/12/30 11:44:01;;;;;;;12.88;3.33;;;;;;;7.52;100.00;100236.97;5094736;28;20032;-53
2022/12/30 11:46:44;;;;;;;10.80;3.17;;;;;;;7.55;100.00;100222.06;5094827;28;20543;-52
2022/12/30 11:49:33;;;;;;;14.95;4.30;;;;;;;7.67;100.00;100200.97;5094829;28;20050;-51
2022/12/30 11:52:03;;;;;;;17.35;6.32;;;;;;;7.66;100.00;100196.66;5091415;28;20056;-53
2022/12/30 11:54:42;;;;;;;41.75;17.55;;;;;;;7.73;100.00;100191.81;5094979;28;20028;-51
2022/12/30 11:57:26;;;;;;;36.83;11.52;;;;;;;7.76;100.00;100187.75;5093043;28;20059;-51
2022/12/30 12:00:17;;;;;;;18.75;7.47;;;;;;;7.91;100.00;100174.22;5084707;28;20040;-51
2022/12/30 12:02:47;;;;;;;11.00;3.25;;;;;;;7.75;100.00;100164.44;5087969;28;20051;-52
2022/12/30 12:05:26;;;;;;;11.02;2.88;;;;;;;7.69;100.00;100158.97;5092854;28;20044;-50
2022/12/30 12:08:07;;;;;;;10.73;2.92;;;;;;;7.66;100.00;100143.22;5093472;28;20044;-48
2022/12/30 12:10:36;;;;;;;10.85;3.15;;;;;;;7.66;100.00;100135.09;5091665;28;20051;-50
2022/12/30 12:13:16;;;;;;;11.98;3.28;;;;;;;7.67;100.00;100125.91;5093376;28;20490;-50
2022/12/30 12:15:48;;;;;;;13.63;3.60;;;;;;;7.67;100.00;100112.34;5094060;28;20453;-51
2022/12/30 12:18:40;;;;;;;15.57;3.47;;;;;;;7.72;100.00;100110.72;5092318;28;20043;-49
2022/12/30 12:21:17;;;;;;;12.05;3.22;;;;;;;7.76;100.00;100106.38;5091440;28;20127;-53
2022/12/30 12:23:45;;;;;;;12.75;3.45;;;;;;;7.79;100.00;100092.28;5086944;28;20040;-51
2022/12/30 12:26:43;;;;;;;12.25;2.90;;;;;;;7.83;100.00;100072.50;5094021;28;20048;-51
2022/12/30 12:29:13;;;;;;;14.02;4.35;;;;;;;7.90;100.00;100074.97;5042269;28;20056;-51
2022/12/30 12:32:18;;;;;;;11.27;3.47;;;;;;;7.96;100.00;100063.06;5080658;28;20410;-50
2022/12/30 12:35:12;;;;;;;;;;;;;;;8.00;100.00;100061.41;5093431;28;20503;-51
2022/12/30 12:37:57;;;;;;;15.02;4.45;;;;;;;8.13;100.00;100049.22;5093996;28;20393;-49